createdAt,value
2017-12-26T00:01:06.126Z,99564.42
2017-12-26T00:03:33.640Z,99564.45
2017-12-26T00:06:01.183Z,99561.45
2017-12-26T00:08:28.695Z,99561.45
2017-12-26T00:10:56.212Z,99548.88
2017-12-26T00:13:23.730Z,99548.09
2017-12-26T00:15:51.262Z,99547.77
2017-12-26T00:18:18.828Z,99540.70
2017-12-26T00:20:46.284Z,99539.64
2017-12-26T00:23:13.789Z,99544.54
2017-12-26T00:25:41.247Z,99537.89
2017-12-26T00:28:10.555Z,99532.64
2017-12-26T00:30:38.012Z,99533.22
2017-12-26T00:33:05.468Z,99532.69
2017-12-26T00:35:32.943Z,99530.54
2017-12-26T00:38:00.441Z,99529.50
2017-12-26T00:40:27.897Z,99538.63
2017-12-26T00:42:55.378Z,99526.32
2017-12-26T00:45:22.832Z,99526.69
2017-12-26T00:47:50.309Z,99523.75
2017-12-26T00:50:17.772Z,99514.35
2017-12-26T00:52:45.226Z,99512.52
2017-12-26T00:55:12.676Z,99514.34
2017-12-26T00:57:40.172Z,99516.43
2017-12-26T01:00:07.623Z,99523.05
2017-12-26T01:02:35.077Z,99523.71
2017-12-26T01:05:02.559Z,99531.52
2017-12-26T01:07:30.013Z,99527.32
2017-12-26T01:09:57.480Z,99528.11
2017-12-26T01:12:24.932Z,99517.68
2017-12-26T01:14:52.392Z,99520.44
2017-12-26T01:17:19.852Z,99514.20
2017-12-26T01:19:47.305Z,99516.33
2017-12-26T01:22:14.758Z,99516.78
2017-12-26T01:24:42.241Z,99512.17
2017-12-26T01:27:09.694Z,99503.73
2017-12-26T01:29:37.148Z,99499.49
2017-12-26T01:32:04.597Z,99495.36
2017-12-26T01:34:32.087Z,99490.33
2017-12-26T01:36:59.625Z,99477.77
2017-12-26T01:39:27.108Z,99482.64
2017-12-26T01:41:54.625Z,99478.75
2017-12-26T01:44:22.074Z,99478.19
2017-12-26T01:46:49.532Z,99476.20
2017-12-26T01:49:16.980Z,99471.30
2017-12-26T01:51:44.457Z,99462.67
2017-12-26T01:54:11.904Z,99463.86
2017-12-26T01:56:39.398Z,99461.80
2017-12-26T01:59:06.860Z,99453.11
2017-12-26T02:01:34.313Z,99450.99
2017-12-26T02:04:02.594Z,99449.94
2017-12-26T02:06:30.038Z,99449.70
2017-12-26T02:08:57.510Z,99445.95
2017-12-26T02:11:25.041Z,99448.21
2017-12-26T02:13:52.645Z,99446.89
2017-12-26T02:16:20.191Z,99447.70
2017-12-26T02:18:47.708Z,99440.88
2017-12-26T02:21:15.184Z,99440.19
2017-12-26T02:23:42.634Z,99437.48
2017-12-26T02:26:10.101Z,99433.88
2017-12-26T02:28:37.545Z,99435.31
2017-12-26T02:31:06.169Z,99437.70
2017-12-26T02:33:33.708Z,99437.14
2017-12-26T02:36:01.187Z,99429.59
2017-12-26T02:38:28.647Z,99424.14
2017-12-26T02:40:56.112Z,99423.48
2017-12-26T02:43:23.566Z,99417.15
2017-12-26T02:45:51.062Z,99418.10
2017-12-26T02:48:18.643Z,99407.02
2017-12-26T02:50:46.081Z,99407.05
2017-12-26T02:53:13.557Z,99410.25
2017-12-26T02:55:41.004Z,99408.46
2017-12-26T02:58:08.550Z,99406.42
2017-12-26T03:00:36.016Z,99399.27
2017-12-26T03:03:03.465Z,99394.92
2017-12-26T03:05:30.920Z,99402.42
2017-12-26T03:07:58.377Z,99395.96
2017-12-26T03:10:25.877Z,99392.39
2017-12-26T03:12:53.335Z,99389.63
2017-12-26T03:15:20.785Z,99394.50
2017-12-26T03:17:48.257Z,99394.16
2017-12-26T03:20:15.721Z,99388.98
2017-12-26T03:22:43.175Z,99388.34
2017-12-26T03:25:10.701Z,99383.05
2017-12-26T03:27:38.172Z,99379.82
2017-12-26T03:30:05.639Z,99374.09
2017-12-26T03:32:33.197Z,99362.83
2017-12-26T03:35:00.659Z,99368.54
2017-12-26T03:37:28.116Z,99356.84
2017-12-26T03:39:55.581Z,99365.09
2017-12-26T03:42:23.036Z,99360.99
2017-12-26T03:44:50.505Z,99363.20
2017-12-26T03:47:17.964Z,99360.91
2017-12-26T03:49:45.448Z,99356.42
2017-12-26T03:52:12.922Z,99355.78
2017-12-26T03:54:42.759Z,99355.12
2017-12-26T03:57:10.217Z,99354.03
2017-12-26T03:59:37.668Z,99358.66
2017-12-26T04:02:05.212Z,99347.25
2017-12-26T04:04:32.680Z,99345.05
2017-12-26T04:07:00.144Z,99339.86
2017-12-26T04:09:27.592Z,99344.80
2017-12-26T04:11:55.092Z,99344.37
2017-12-26T04:14:22.541Z,99335.36
2017-12-26T04:16:50.013Z,99340.08
2017-12-26T04:19:17.478Z,99336.62
2017-12-26T04:21:44.958Z,99322.05
2017-12-26T04:24:12.424Z,99329.36
2017-12-26T04:26:39.888Z,99328.19
2017-12-26T04:29:07.388Z,99326.31
2017-12-26T04:31:34.849Z,99324.98
2017-12-26T04:34:02.307Z,99319.60
2017-12-26T04:36:29.764Z,99315.21
2017-12-26T04:38:57.260Z,99318.78
2017-12-26T04:41:24.714Z,99318.56
2017-12-26T04:43:52.372Z,99310.18
2017-12-26T04:46:19.818Z,99307.13
2017-12-26T04:48:47.352Z,99305.92
2017-12-26T04:51:14.818Z,99294.27
2017-12-26T04:53:42.271Z,99286.77
2017-12-26T04:56:09.866Z,99283.28
2017-12-26T04:58:37.318Z,99276.80
2017-12-26T05:01:04.831Z,99279.16
2017-12-26T05:03:32.449Z,99281.28
2017-12-26T05:05:59.925Z,99271.50
2017-12-26T05:08:27.417Z,99273.25
2017-12-26T05:10:54.881Z,99276.25
2017-12-26T05:13:22.367Z,99268.92
2017-12-26T05:15:49.841Z,99266.98
2017-12-26T05:18:17.313Z,99265.23
2017-12-26T05:20:44.755Z,99269.65
2017-12-26T05:23:12.242Z,99261.16
2017-12-26T05:25:39.685Z,99259.72
2017-12-26T05:28:07.138Z,99251.42
2017-12-26T05:30:34.590Z,99259.78
2017-12-26T05:33:02.029Z,99255.66
2017-12-26T05:35:29.487Z,99256.47
2017-12-26T05:37:56.941Z,99243.02
2017-12-26T05:40:24.406Z,99242.45
2017-12-26T05:42:51.868Z,99240.85
2017-12-26T05:45:19.342Z,99239.16
2017-12-26T05:47:46.828Z,99227.41
2017-12-26T05:50:14.301Z,99230.14
2017-12-26T05:52:41.764Z,99226.00
2017-12-26T05:55:09.228Z,99237.69
2017-12-26T05:57:36.681Z,99231.17
2017-12-26T06:00:04.172Z,99229.03
2017-12-26T06:02:31.634Z,99230.64
2017-12-26T06:04:59.089Z,99218.44
2017-12-26T06:07:26.602Z,99221.58
2017-12-26T06:09:54.115Z,99213.88
2017-12-26T06:12:21.584Z,99208.85
2017-12-26T06:14:49.050Z,99213.48
2017-12-26T06:17:16.586Z,99211.17
2017-12-26T06:19:44.085Z,99210.91
2017-12-26T06:22:11.502Z,99215.83
2017-12-26T06:24:39.206Z,99211.33
2017-12-26T06:27:06.661Z,99212.36
2017-12-26T06:29:34.116Z,99207.41
2017-12-26T06:32:01.582Z,99209.67
2017-12-26T06:34:29.044Z,99210.63
2017-12-26T06:36:56.510Z,99219.66
2017-12-26T06:39:23.978Z,99207.89
2017-12-26T06:41:51.436Z,99212.48
2017-12-26T06:44:18.924Z,99216.05
2017-12-26T06:46:46.368Z,99208.88
2017-12-26T06:49:13.836Z,99205.31
2017-12-26T06:51:41.312Z,99206.09
2017-12-26T06:54:08.860Z,99203.19
2017-12-26T06:56:36.336Z,99195.80
2017-12-26T06:59:03.785Z,99182.83
2017-12-26T07:01:31.253Z,99186.01
2017-12-26T07:03:58.697Z,99189.60
2017-12-26T07:06:26.159Z,99189.60
2017-12-26T07:08:53.609Z,99183.38
2017-12-26T07:11:21.149Z,99176.38
2017-12-26T07:13:48.597Z,99173.75
2017-12-26T07:16:16.060Z,99180.02
2017-12-26T07:18:43.547Z,99167.77
2017-12-26T07:21:16.572Z,99174.53
2017-12-26T07:23:44.138Z,99163.95
2017-12-26T07:26:11.609Z,99165.07
2017-12-26T07:28:39.065Z,99164.98
2017-12-26T07:31:06.570Z,99171.56
2017-12-26T07:33:34.116Z,99173.05
2017-12-26T07:36:01.568Z,99178.09
2017-12-26T07:38:29.075Z,99171.73
2017-12-26T07:40:56.530Z,99173.47
2017-12-26T07:43:24.018Z,99167.77
2017-12-26T07:45:51.516Z,99174.02
2017-12-26T07:48:18.972Z,99161.70
2017-12-26T07:50:46.472Z,99166.08
2017-12-26T07:53:13.988Z,99159.21
2017-12-26T07:55:41.476Z,99170.61
2017-12-26T07:58:09.089Z,99160.17
2017-12-26T08:00:36.549Z,99161.02
2017-12-26T08:03:04.087Z,99161.27
2017-12-26T08:05:31.551Z,99156.34
2017-12-26T08:07:59.085Z,99151.82
2017-12-26T08:10:26.538Z,99151.42
2017-12-26T08:12:53.995Z,99155.10
2017-12-26T08:15:21.444Z,99154.09
2017-12-26T08:17:48.917Z,99152.91
2017-12-26T08:20:16.381Z,99151.19
2017-12-26T08:22:43.846Z,99155.94
2017-12-26T08:25:11.312Z,99153.30
2017-12-26T08:27:38.845Z,99145.74
2017-12-26T08:30:06.288Z,99147.23
2017-12-26T08:32:33.763Z,99144.70
2017-12-26T08:35:01.217Z,99153.08
2017-12-26T08:37:28.655Z,99147.63
2017-12-26T08:39:56.118Z,99146.55
2017-12-26T08:42:23.556Z,99138.22
2017-12-26T08:44:51.070Z,99146.17
2017-12-26T08:47:18.515Z,99137.84
2017-12-26T08:49:46.024Z,99131.52
2017-12-26T08:52:13.484Z,99142.13
2017-12-26T08:54:41.683Z,99151.00
2017-12-26T08:57:09.129Z,99141.36
2017-12-26T08:59:36.588Z,99135.92
2017-12-26T09:02:04.056Z,99142.45
2017-12-26T09:04:31.503Z,99136.06
2017-12-26T09:06:59.039Z,99135.05
2017-12-26T09:09:26.484Z,99133.84
2017-12-26T09:11:53.942Z,99150.05
2017-12-26T09:14:21.417Z,99141.30
2017-12-26T09:16:48.905Z,99143.83
2017-12-26T09:19:16.361Z,99151.40
2017-12-26T09:21:43.848Z,99157.38
2017-12-26T09:24:11.416Z,99150.89
2017-12-26T09:26:38.864Z,99157.92
2017-12-26T09:29:06.391Z,99145.20
2017-12-26T09:31:33.846Z,99138.69
2017-12-26T09:34:01.318Z,99135.64
2017-12-26T09:36:28.776Z,99127.83
2017-12-26T09:39:00.418Z,99124.14
2017-12-26T09:41:27.872Z,99113.39
2017-12-26T09:43:55.384Z,99119.78
2017-12-26T09:46:22.834Z,99120.32
2017-12-26T09:48:50.295Z,99106.27
2017-12-26T09:51:18.481Z,99104.54
2017-12-26T09:53:46.041Z,99092.09
2017-12-26T09:56:13.482Z,99086.64
2017-12-26T09:58:40.956Z,99078.53
2017-12-26T10:01:08.440Z,99080.00
2017-12-26T10:03:35.982Z,99081.17
2017-12-26T10:06:03.544Z,99080.50
2017-12-26T10:08:31.001Z,99075.69
2017-12-26T10:10:58.475Z,99082.31
2017-12-26T10:13:25.958Z,99072.58
2017-12-26T10:15:53.450Z,99065.66
2017-12-26T10:18:20.906Z,99058.31
2017-12-26T10:20:48.369Z,99047.39
2017-12-26T10:23:15.826Z,99047.41
2017-12-26T10:25:43.284Z,99034.79
2017-12-26T10:28:10.753Z,99028.73
2017-12-26T10:30:38.274Z,99013.33
2017-12-26T10:33:05.846Z,99016.59
2017-12-26T10:35:33.308Z,99013.52
2017-12-26T10:38:00.794Z,99012.30
2017-12-26T10:40:28.268Z,98995.68
2017-12-26T10:42:55.731Z,98993.72
2017-12-26T10:45:23.285Z,99001.48
2017-12-26T10:47:50.865Z,98989.42
2017-12-26T10:50:18.381Z,98989.05
2017-12-26T10:52:45.846Z,98981.25
2017-12-26T10:55:13.377Z,98975.33
2017-12-26T10:57:41.074Z,98975.09
2017-12-26T11:00:08.534Z,98985.86
2017-12-26T11:02:36.003Z,98982.95
2017-12-26T11:05:03.492Z,98975.71
2017-12-26T11:07:31.024Z,98962.61
2017-12-26T11:09:58.488Z,98955.48
2017-12-26T11:12:25.950Z,98960.78
2017-12-26T11:14:53.421Z,98960.94
2017-12-26T11:17:20.881Z,98951.91
2017-12-26T11:19:48.360Z,98950.45
2017-12-26T11:22:15.817Z,98937.83
2017-12-26T11:24:43.284Z,98927.69
2017-12-26T11:27:10.755Z,98921.41
2017-12-26T11:29:38.201Z,98923.03
2017-12-26T11:32:05.675Z,98898.05
2017-12-26T11:34:33.123Z,98894.59
2017-12-26T11:37:00.577Z,98885.58
2017-12-26T11:39:28.054Z,98871.43
2017-12-26T11:41:55.563Z,98870.56
2017-12-26T11:44:23.025Z,98867.36
2017-12-26T11:46:50.473Z,98873.63
2017-12-26T11:49:17.942Z,98878.59
2017-12-26T11:51:45.408Z,98882.75
2017-12-26T11:54:13.009Z,98879.05
2017-12-26T11:56:40.450Z,98875.72
2017-12-26T11:59:07.918Z,98865.20
2017-12-26T12:01:35.385Z,98867.22
2017-12-26T12:04:02.865Z,98865.34
2017-12-26T12:06:30.314Z,98861.83
2017-12-26T12:08:57.788Z,98851.69
2017-12-26T12:11:25.257Z,98844.63
2017-12-26T12:13:52.756Z,98845.41
2017-12-26T12:16:20.226Z,98840.06
2017-12-26T12:18:47.773Z,98827.07
2017-12-26T12:21:15.244Z,98820.44
2017-12-26T12:23:42.720Z,98810.14
2017-12-26T12:26:10.295Z,98791.74
2017-12-26T12:28:37.783Z,98795.66
2017-12-26T12:31:05.281Z,98784.94
2017-12-26T12:33:32.746Z,98778.23
2017-12-26T12:36:00.280Z,98783.14
2017-12-26T12:38:27.733Z,98786.05
2017-12-26T12:40:55.318Z,98779.97
2017-12-26T12:43:22.793Z,98795.98
2017-12-26T12:45:50.269Z,98805.37
2017-12-26T12:48:17.828Z,98794.14
2017-12-26T12:50:45.300Z,98788.45
2017-12-26T12:53:12.848Z,98784.67
2017-12-26T12:55:40.342Z,98778.28
2017-12-26T12:58:07.810Z,98781.69
2017-12-26T13:00:35.407Z,98775.32
2017-12-26T13:03:02.957Z,98793.87
2017-12-26T13:05:30.456Z,98786.63
2017-12-26T13:07:58.222Z,98783.78
2017-12-26T13:10:25.787Z,98784.69
2017-12-26T13:12:53.284Z,98774.99
2017-12-26T13:15:20.749Z,98767.33
2017-12-26T13:17:48.200Z,98777.41
2017-12-26T13:20:15.662Z,98772.56
2017-12-26T13:22:43.147Z,98763.57
2017-12-26T13:25:10.640Z,98766.75
2017-12-26T13:27:38.116Z,98771.33
2017-12-26T13:30:05.578Z,98765.86
2017-12-26T13:32:33.141Z,98776.97
2017-12-26T13:35:00.628Z,98769.19
2017-12-26T13:37:28.107Z,98775.47
2017-12-26T13:39:55.559Z,98774.31
2017-12-26T13:42:23.021Z,98766.73
2017-12-26T13:44:50.550Z,98777.94
2017-12-26T13:47:18.017Z,98780.66
2017-12-26T13:49:45.479Z,98770.18
2017-12-26T13:52:12.944Z,98765.92
2017-12-26T13:54:40.391Z,98767.23
2017-12-26T13:57:07.860Z,98757.97
2017-12-26T13:59:35.305Z,98761.50
2017-12-26T14:02:02.750Z,98762.43
2017-12-26T14:04:30.208Z,98775.73
2017-12-26T14:06:57.669Z,98769.05
2017-12-26T14:09:25.173Z,98776.11
2017-12-26T14:11:52.649Z,98765.72
2017-12-26T14:14:20.110Z,98785.32
2017-12-26T14:16:47.568Z,98771.05
2017-12-26T14:19:15.023Z,98774.36
2017-12-26T14:21:42.483Z,98772.13
2017-12-26T14:24:10.159Z,98766.84
2017-12-26T14:26:37.612Z,98766.92
2017-12-26T14:29:05.063Z,98766.59
2017-12-26T14:31:32.516Z,98781.66
2017-12-26T14:33:59.963Z,98781.78
2017-12-26T14:36:27.427Z,98769.99
2017-12-26T14:38:54.895Z,98778.20
2017-12-26T14:41:22.349Z,98772.41
2017-12-26T14:43:49.793Z,98784.73
2017-12-26T14:46:17.256Z,98794.28
2017-12-26T14:48:44.696Z,98792.27
2017-12-26T14:51:12.137Z,98790.48
2017-12-26T14:53:39.615Z,98805.70
2017-12-26T14:56:07.189Z,98811.11
2017-12-26T14:58:34.788Z,98798.55
2017-12-26T15:01:02.285Z,98802.71
2017-12-26T15:03:29.772Z,98812.37
2017-12-26T15:05:57.305Z,98810.58
2017-12-26T15:08:24.787Z,98822.45
2017-12-26T15:10:52.243Z,98815.96
2017-12-26T15:13:19.730Z,98827.73
2017-12-26T15:15:47.177Z,98826.45
2017-12-26T15:18:14.629Z,98832.59
2017-12-26T15:20:42.271Z,98831.18
2017-12-26T15:23:09.758Z,98822.45
2017-12-26T15:25:37.311Z,98827.30
2017-12-26T15:28:04.761Z,98841.16
2017-12-26T15:30:32.252Z,98836.63
2017-12-26T15:32:59.727Z,98840.77
2017-12-26T15:35:27.272Z,98834.08
2017-12-26T15:37:54.728Z,98843.30
2017-12-26T15:40:22.181Z,98845.56
2017-12-26T15:42:49.733Z,98848.81
2017-12-26T15:45:17.205Z,98852.58
2017-12-26T15:47:44.666Z,98857.28
2017-12-26T15:50:12.183Z,98849.43
2017-12-26T15:52:39.636Z,98852.95
2017-12-26T15:55:07.141Z,98840.55
2017-12-26T15:57:34.703Z,98829.21
2017-12-26T16:00:02.141Z,98844.26
2017-12-26T16:02:29.612Z,98837.11
2017-12-26T16:04:57.047Z,98841.39
2017-12-26T16:07:24.494Z,98845.95
2017-12-26T16:09:52.004Z,98849.22
2017-12-26T16:12:19.448Z,98835.84
2017-12-26T16:14:46.902Z,98857.21
2017-12-26T16:17:14.357Z,98857.47
2017-12-26T16:19:41.821Z,98851.79
2017-12-26T16:22:09.260Z,98862.28
2017-12-26T16:24:36.711Z,98862.41
2017-12-26T16:27:04.154Z,98867.52
2017-12-26T16:29:31.653Z,98862.88
2017-12-26T16:31:59.116Z,98864.77
2017-12-26T16:34:26.552Z,98866.83
2017-12-26T16:36:54.000Z,98873.18
2017-12-26T16:39:21.441Z,98876.00
2017-12-26T16:41:48.896Z,98873.44
2017-12-26T16:44:16.352Z,98900.47
2017-12-26T16:46:43.801Z,98910.00
2017-12-26T16:49:11.280Z,98926.06
2017-12-26T16:51:39.066Z,98929.88
2017-12-26T16:54:06.552Z,98936.63
2017-12-26T16:56:34.018Z,98944.63
2017-12-26T16:59:01.468Z,98941.95
2017-12-26T17:01:28.911Z,98941.53
2017-12-26T17:03:56.360Z,98943.44
2017-12-26T17:06:23.818Z,98951.88
2017-12-26T17:08:51.276Z,98959.50
2017-12-26T17:11:18.712Z,98968.70
2017-12-26T17:13:46.154Z,98962.53
2017-12-26T17:16:13.596Z,98964.08
2017-12-26T17:18:41.086Z,98958.34
2017-12-26T17:21:08.525Z,98956.98
2017-12-26T17:23:36.020Z,98952.41
2017-12-26T17:26:03.584Z,98959.61
2017-12-26T17:28:31.108Z,98957.52
2017-12-26T17:30:58.571Z,98962.58
2017-12-26T17:33:26.059Z,98967.43
2017-12-26T17:35:53.514Z,98969.42
2017-12-26T17:38:20.962Z,98966.73
2017-12-26T17:40:48.435Z,98971.63
2017-12-26T17:43:15.931Z,98981.33
2017-12-26T17:45:43.423Z,98982.23
2017-12-26T17:48:10.854Z,98984.84
2017-12-26T17:50:38.355Z,98981.72
2017-12-26T17:53:05.880Z,98986.87
2017-12-26T17:55:33.393Z,99000.02
2017-12-26T17:58:00.876Z,99000.08
2017-12-26T18:00:28.312Z,98990.33
2017-12-26T18:02:55.779Z,98996.54
2017-12-26T18:05:23.225Z,98998.04
2017-12-26T18:07:50.721Z,99004.94
2017-12-26T18:10:18.267Z,98997.77
2017-12-26T18:12:45.719Z,99002.13
2017-12-26T18:15:13.203Z,98997.98
2017-12-26T18:17:40.701Z,98999.27
2017-12-26T18:20:08.142Z,99000.09
2017-12-26T18:22:35.592Z,98997.03
2017-12-26T18:25:03.089Z,99001.98
2017-12-26T18:27:30.602Z,99009.85
2017-12-26T18:29:58.046Z,99013.86
2017-12-26T18:32:25.533Z,98992.47
2017-12-26T18:34:53.022Z,98993.14
2017-12-26T18:37:20.507Z,98989.36
2017-12-26T18:39:48.030Z,98994.98
2017-12-26T18:42:15.465Z,98998.73
2017-12-26T18:44:42.928Z,98993.88
2017-12-26T18:47:10.409Z,98999.81
2017-12-26T18:49:37.920Z,98993.84
2017-12-26T18:52:05.482Z,98996.43
2017-12-26T18:54:32.987Z,98992.08
2017-12-26T18:57:00.467Z,98988.11
2017-12-26T18:59:27.913Z,98995.17
2017-12-26T19:01:55.448Z,98997.58
2017-12-26T19:04:22.902Z,98998.84
2017-12-26T19:06:50.385Z,99001.84
2017-12-26T19:09:17.865Z,99002.41
2017-12-26T19:11:45.312Z,98996.60
2017-12-26T19:14:12.768Z,98976.31
2017-12-26T19:16:40.270Z,98976.86
2017-12-26T19:19:07.712Z,98978.50
2017-12-26T19:21:35.178Z,98968.99
2017-12-26T19:24:05.600Z,98971.92
2017-12-26T19:26:33.084Z,98975.31
2017-12-26T19:29:00.578Z,98965.47
2017-12-26T19:31:28.051Z,98967.48
2017-12-26T19:33:55.557Z,98964.20
2017-12-26T19:36:22.998Z,98968.40
2017-12-26T19:38:50.518Z,98968.92
2017-12-26T19:41:18.098Z,98969.47
2017-12-26T19:43:45.616Z,98966.41
2017-12-26T19:46:13.100Z,98971.30
2017-12-26T19:48:40.561Z,98974.34
2017-12-26T19:51:08.017Z,98975.13
2017-12-26T19:53:35.505Z,98970.49
2017-12-26T19:56:03.026Z,98975.81
2017-12-26T19:58:30.514Z,98972.64
2017-12-26T20:00:58.018Z,98975.58
2017-12-26T20:03:25.452Z,98967.77
2017-12-26T20:05:52.901Z,98966.30
2017-12-26T20:08:20.380Z,98973.34
2017-12-26T20:10:47.952Z,98972.69
2017-12-26T20:13:15.491Z,98975.69
2017-12-26T20:15:43.016Z,98965.59
2017-12-26T20:18:10.460Z,98963.45
2017-12-26T20:20:37.983Z,98967.05
2017-12-26T20:23:05.437Z,98959.59
2017-12-26T20:25:32.875Z,98957.61
2017-12-26T20:28:06.066Z,98948.02
2017-12-26T20:30:33.546Z,98950.13
2017-12-26T20:33:01.052Z,98947.74
2017-12-26T20:35:28.547Z,98939.48
2017-12-26T20:37:56.045Z,98943.07
2017-12-26T20:40:23.562Z,98941.37
2017-12-26T20:42:51.057Z,98934.87
2017-12-26T20:45:18.521Z,98934.61
2017-12-26T20:47:46.015Z,98932.23
2017-12-26T20:50:13.506Z,98920.78
2017-12-26T20:52:40.973Z,98921.72
2017-12-26T20:55:08.449Z,98928.48
2017-12-26T20:57:35.958Z,98923.25
2017-12-26T21:00:03.508Z,98910.78
2017-12-26T21:02:30.999Z,98912.78
2017-12-26T21:04:58.508Z,98906.41
2017-12-26T21:07:26.030Z,98907.21
2017-12-26T21:09:53.532Z,98910.97
2017-12-26T21:12:21.005Z,98902.59
2017-12-26T21:14:48.495Z,98905.50
2017-12-26T21:17:15.994Z,98900.08
2017-12-26T21:19:43.504Z,98893.30
2017-12-26T21:22:11.005Z,98887.03
2017-12-26T21:24:38.503Z,98885.05
2017-12-26T21:27:06.023Z,98886.39
2017-12-26T21:29:33.510Z,98882.27
2017-12-26T21:32:01.003Z,98882.02
2017-12-26T21:34:28.493Z,98881.89
2017-12-26T21:36:56.022Z,98870.05
2017-12-26T21:39:23.499Z,98871.91
2017-12-26T21:41:51.120Z,98878.55
2017-12-26T21:44:18.616Z,98870.34
2017-12-26T21:46:46.131Z,98859.59
2017-12-26T21:49:13.657Z,98855.46
2017-12-26T21:51:41.138Z,98854.54
2017-12-26T21:54:08.635Z,98853.50
2017-12-26T21:56:36.141Z,98862.89
2017-12-26T21:59:03.671Z,98847.88
2017-12-26T22:01:31.393Z,98853.22
2017-12-26T22:03:58.885Z,98843.88
2017-12-26T22:06:26.380Z,98847.92
2017-12-26T22:08:53.960Z,98837.47
2017-12-26T22:11:21.466Z,98842.30
2017-12-26T22:13:48.961Z,98848.27
2017-12-26T22:16:16.526Z,98843.76
2017-12-26T22:18:44.034Z,98851.08
2017-12-26T22:21:11.645Z,98850.82
2017-12-26T22:23:39.163Z,98848.44
2017-12-26T22:26:06.695Z,98834.80
2017-12-26T22:28:34.221Z,98827.51
2017-12-26T22:31:01.764Z,98822.21
2017-12-26T22:33:29.279Z,98819.95
2017-12-26T22:35:56.784Z,98817.58
2017-12-26T22:38:24.285Z,98813.08
2017-12-26T22:40:51.793Z,98815.05
2017-12-26T22:43:19.324Z,98811.89
2017-12-26T22:45:46.845Z,98808.32
2017-12-26T22:48:14.343Z,98807.81
2017-12-26T22:50:41.839Z,98809.16
2017-12-26T22:53:09.336Z,98810.88
2017-12-26T22:55:36.881Z,98812.19
2017-12-26T22:58:04.384Z,98814.98
2017-12-26T23:00:31.893Z,98804.52
2017-12-26T23:02:59.390Z,98802.54
2017-12-26T23:05:26.897Z,98794.44
2017-12-26T23:07:54.383Z,98785.83
2017-12-26T23:10:21.884Z,98797.20
2017-12-26T23:12:49.377Z,98794.30
2017-12-26T23:15:23.357Z,98788.45
2017-12-26T23:17:56.563Z,98780.63
2017-12-26T23:20:29.648Z,98778.77
2017-12-26T23:26:09.318Z,98778.89
2017-12-26T23:28:42.565Z,98775.47
2017-12-26T23:31:15.814Z,98772.15
2017-12-26T23:33:48.868Z,98777.32
2017-12-26T23:36:22.093Z,98763.69
2017-12-26T23:38:55.241Z,98762.22
2017-12-26T23:41:28.420Z,98760.52
2017-12-26T23:44:01.621Z,98757.62
2017-12-26T23:46:34.786Z,98751.79
2017-12-26T23:49:07.790Z,98743.03
2017-12-26T23:51:41.122Z,98742.91
2017-12-26T23:54:14.191Z,98734.15
2017-12-26T23:56:47.306Z,98731.27
2017-12-26T23:59:20.535Z,98729.02
